Metar z połowy godziny Komunikat METAR ze strony awiacja.imgw.pl Metar G30 EPKS METAR EPKS 162300Z 11007KT 9999 BKN100 M03/M05 Q1017 RMK M027 086 8/7=